JBU3212 KDEN-KMCO
Flight info
| Callsign | JBU3212 |
|---|---|
| Flight time | 1h 59m |
| Altitude | 35000 |
| Route | EPKEE7 DUUZE ICT MUDHO Q128 JILLS DEEDA GRNCH5 |
| Aircraft | A321/M-SDE3FGHIRWY/LB1 |
Departure
| Time | 2026-05-05 01:19 |
|---|---|
| Airport | Denver International Airport (KDEN) |
Arrival
| Time | 2026-05-05 03:18 |
|---|---|
| Airport | Orlando International Airport (KMCO) |
| Time | Latitude | Longitude | Altitude | Speed | Heading |
|---|---|---|---|---|---|
| 2026-05-05 00:29 | 39.85338 | -104.67157 | 5387 ft | 0 kts | 1° |
| 2026-05-05 00:31 | 39.85337 | -104.67157 | 5387 ft | 0 kts | 1° |
| 2026-05-05 01:02 | 39.85326 | -104.67158 | 5385 ft | 3 kts | 1° |
| 2026-05-05 01:03 | 39.85307 | -104.67158 | 5383 ft | 3 kts | 1° |
| 2026-05-05 01:03 | 39.85288 | -104.67159 | 5383 ft | 3 kts | 0° |
| 2026-05-05 01:03 | 39.85270 | -104.67163 | 5386 ft | 3 kts | 29° |
| 2026-05-05 01:03 | 39.85267 | -104.67165 | 5386 ft | 0 kts | 36° |
| 2026-05-05 01:05 | 39.85267 | -104.67163 | 5386 ft | 0 kts | 50° |
| 2026-05-05 01:05 | 39.85270 | -104.67154 | 5384 ft | 4 kts | 67° |
| 2026-05-05 01:05 | 39.85270 | -104.67141 | 5385 ft | 0 kts | 90° |
| 2026-05-05 01:08 | 39.85270 | -104.67138 | 5386 ft | 2 kts | 90° |
| 2026-05-05 01:08 | 39.85274 | -104.67085 | 5387 ft | 10 kts | 87° |
| 2026-05-05 01:08 | 39.85276 | -104.66959 | 5389 ft | 18 kts | 90° |
| 2026-05-05 01:08 | 39.85275 | -104.66851 | 5391 ft | 0 kts | 91° |
| 2026-05-05 01:09 | 39.85275 | -104.66849 | 5391 ft | 2 kts | 91° |
| 2026-05-05 01:09 | 39.85275 | -104.66795 | 5392 ft | 10 kts | 90° |
| 2026-05-05 01:10 | 39.85273 | -104.66691 | 5395 ft | 8 kts | 91° |
| 2026-05-05 01:10 | 39.85272 | -104.66618 | 5396 ft | 9 kts | 92° |
| 2026-05-05 01:10 | 39.85279 | -104.66568 | 5393 ft | 0 kts | 69° |
| 2026-05-05 01:11 | 39.85280 | -104.66567 | 5393 ft | 1 kts | 60° |
| 2026-05-05 01:11 | 39.85333 | -104.66583 | 5391 ft | 12 kts | 352° |
| 2026-05-05 01:11 | 39.85424 | -104.66585 | 5393 ft | 14 kts | 0° |
| 2026-05-05 01:11 | 39.85528 | -104.66585 | 5391 ft | 16 kts | 0° |
| 2026-05-05 01:12 | 39.85612 | -104.66515 | 5388 ft | 13 kts | 27° |
| 2026-05-05 01:12 | 39.85627 | -104.66517 | 5391 ft | 1 kts | 339° |
| 2026-05-05 01:12 | 39.85643 | -104.66518 | 5390 ft | 4 kts | 357° |
| 2026-05-05 01:12 | 39.85657 | -104.66555 | 5389 ft | 8 kts | 278° |
| 2026-05-05 01:13 | 39.85659 | -104.66698 | 5385 ft | 24 kts | 271° |
| 2026-05-05 01:13 | 39.85660 | -104.66921 | 5382 ft | 25 kts | 270° |
| 2026-05-05 01:13 | 39.85664 | -104.67146 | 5381 ft | 25 kts | 271° |
| 2026-05-05 01:13 | 39.85666 | -104.67372 | 5382 ft | 24 kts | 271° |
| 2026-05-05 01:14 | 39.85666 | -104.67596 | 5379 ft | 25 kts | 270° |
| 2026-05-05 01:14 | 39.85668 | -104.67819 | 5379 ft | 25 kts | 271° |
| 2026-05-05 01:14 | 39.85669 | -104.68039 | 5379 ft | 24 kts | 271° |
| 2026-05-05 01:14 | 39.85687 | -104.68245 | 5377 ft | 22 kts | 276° |
| 2026-05-05 01:15 | 39.85687 | -104.68440 | 5372 ft | 18 kts | 271° |
| 2026-05-05 01:15 | 39.85776 | -104.68513 | 5364 ft | 18 kts | 360° |
| 2026-05-05 01:15 | 39.85904 | -104.68510 | 5366 ft | 20 kts | 0° |
| 2026-05-05 01:15 | 39.86046 | -104.68509 | 5365 ft | 20 kts | 1° |
| 2026-05-05 01:16 | 39.86189 | -104.68508 | 5364 ft | 20 kts | 0° |
| 2026-05-05 01:16 | 39.86320 | -104.68509 | 5366 ft | 18 kts | 0° |
| 2026-05-05 01:16 | 39.86412 | -104.68526 | 5366 ft | 11 kts | 321° |
| 2026-05-05 01:16 | 39.86425 | -104.68568 | 5365 ft | 0 kts | 277° |
| 2026-05-05 01:17 | 39.86425 | -104.68569 | 5365 ft | 1 kts | 277° |
| 2026-05-05 01:17 | 39.86427 | -104.68613 | 5365 ft | 11 kts | 272° |
| 2026-05-05 01:17 | 39.86472 | -104.68715 | 5366 ft | 15 kts | 345° |
| 2026-05-05 01:18 | 39.86647 | -104.68719 | 5365 ft | 51 kts | 0° |
| 2026-05-05 01:18 | 39.87224 | -104.68713 | 5358 ft | 112 kts | 0° |
| 2026-05-05 01:18 | 39.88178 | -104.68703 | 5361 ft | 161 kts | 0° |
| 2026-05-05 01:18 | 39.89419 | -104.68679 | 5518 ft | 187 kts | 0° |
| 2026-05-05 01:19 | 39.90700 | -104.68479 | 6256 ft | 189 kts | 25° |
| 2026-05-05 01:19 | 39.91652 | -104.67285 | 6867 ft | 196 kts | 57° |
| 2026-05-05 01:19 | 39.92027 | -104.65511 | 7049 ft | 219 kts | 91° |
| 2026-05-05 01:19 | 39.91508 | -104.63590 | 7196 ft | 239 kts | 115° |
| 2026-05-05 01:20 | 39.90665 | -104.61600 | 7311 ft | 258 kts | 116° |
| 2026-05-05 01:20 | 39.89763 | -104.59517 | 7470 ft | 278 kts | 117° |
| 2026-05-05 01:20 | 39.88792 | -104.57284 | 7952 ft | 287 kts | 117° |
| 2026-05-05 01:20 | 39.87803 | -104.55019 | 8628 ft | 288 kts | 118° |
| 2026-05-05 01:21 | 39.86807 | -104.52743 | 9319 ft | 289 kts | 118° |
| 2026-05-05 01:21 | 39.85814 | -104.50462 | 9874 ft | 292 kts | 118° |
| 2026-05-05 01:21 | 39.84816 | -104.48157 | 9997 ft | 292 kts | 118° |
| 2026-05-05 01:21 | 39.83781 | -104.45767 | 10026 ft | 311 kts | 118° |
| 2026-05-05 01:22 | 39.82729 | -104.43341 | 10028 ft | 314 kts | 118° |
| 2026-05-05 01:22 | 39.81668 | -104.40888 | 10011 ft | 305 kts | 118° |
| 2026-05-05 01:22 | 39.80640 | -104.38376 | 10109 ft | 324 kts | 115° |
| 2026-05-05 01:22 | 39.79655 | -104.35675 | 10336 ft | 340 kts | 114° |
| 2026-05-05 01:23 | 39.78673 | -104.32822 | 10640 ft | 351 kts | 113° |
| 2026-05-05 01:23 | 39.77679 | -104.29881 | 11136 ft | 357 kts | 114° |
| 2026-05-05 01:23 | 39.76674 | -104.26914 | 11646 ft | 361 kts | 115° |
| 2026-05-05 01:23 | 39.75648 | -104.23910 | 12164 ft | 366 kts | 115° |
| 2026-05-05 01:24 | 39.74605 | -104.20881 | 12685 ft | 369 kts | 116° |
| 2026-05-05 01:24 | 39.73557 | -104.17867 | 13242 ft | 372 kts | 116° |
| 2026-05-05 01:24 | 39.72480 | -104.14793 | 13757 ft | 376 kts | 116° |
| 2026-05-05 01:24 | 39.71388 | -104.11694 | 14195 ft | 380 kts | 116° |
| 2026-05-05 01:25 | 39.70273 | -104.08550 | 14663 ft | 385 kts | 116° |
| 2026-05-05 01:25 | 39.69145 | -104.05380 | 15144 ft | 389 kts | 117° |
| 2026-05-05 01:25 | 39.68005 | -104.02177 | 15611 ft | 393 kts | 116° |
| 2026-05-05 01:25 | 39.66851 | -103.98931 | 16088 ft | 398 kts | 117° |
| 2026-05-05 01:26 | 39.65687 | -103.95651 | 16563 ft | 402 kts | 117° |
| 2026-05-05 01:26 | 39.64465 | -103.92371 | 17024 ft | 406 kts | 119° |
| 2026-05-05 01:26 | 39.63157 | -103.89099 | 17473 ft | 410 kts | 120° |
| 2026-05-05 01:26 | 39.61793 | -103.85829 | 17944 ft | 414 kts | 121° |
| 2026-05-05 01:27 | 39.60394 | -103.82532 | 18354 ft | 418 kts | 121° |
| 2026-05-05 01:27 | 39.59074 | -103.79163 | 18772 ft | 424 kts | 114° |
| 2026-05-05 01:27 | 39.58025 | -103.75569 | 19200 ft | 427 kts | 112° |
| 2026-05-05 01:27 | 39.56996 | -103.71933 | 19635 ft | 431 kts | 111° |
| 2026-05-05 01:28 | 39.55973 | -103.68282 | 20094 ft | 434 kts | 111° |
| 2026-05-05 01:28 | 39.54939 | -103.64584 | 20536 ft | 437 kts | 111° |
| 2026-05-05 01:28 | 39.53903 | -103.60888 | 20981 ft | 440 kts | 111° |
| 2026-05-05 01:28 | 39.52850 | -103.57145 | 21412 ft | 443 kts | 111° |
| 2026-05-05 01:29 | 39.51784 | -103.53384 | 21810 ft | 446 kts | 112° |
| 2026-05-05 01:29 | 39.50724 | -103.49664 | 22189 ft | 449 kts | 112° |
| 2026-05-05 01:29 | 39.49619 | -103.45806 | 22571 ft | 452 kts | 112° |
| 2026-05-05 01:29 | 39.48527 | -103.41995 | 22764 ft | 454 kts | 112° |
| 2026-05-05 01:30 | 39.47445 | -103.38203 | 22785 ft | 454 kts | 112° |
| 2026-05-05 01:30 | 39.46352 | -103.34363 | 22776 ft | 454 kts | 112° |
| 2026-05-05 01:30 | 39.45257 | -103.30530 | 22768 ft | 455 kts | 112° |
| 2026-05-05 01:30 | 39.44159 | -103.26698 | 22757 ft | 455 kts | 112° |
| 2026-05-05 01:31 | 39.43057 | -103.22870 | 22750 ft | 455 kts | 112° |
| 2026-05-05 01:31 | 39.41948 | -103.19028 | 22749 ft | 455 kts | 112° |
| 2026-05-05 01:31 | 39.40843 | -103.15200 | 22748 ft | 455 kts | 112° |
| 2026-05-05 01:31 | 39.39739 | -103.11380 | 22742 ft | 454 kts | 112° |
| 2026-05-05 01:32 | 39.38631 | -103.07546 | 22746 ft | 454 kts | 112° |
| 2026-05-05 01:32 | 39.37523 | -103.03717 | 22746 ft | 454 kts | 112° |
| 2026-05-05 01:32 | 39.36417 | -102.99902 | 22741 ft | 453 kts | 112° |
| 2026-05-05 01:32 | 39.35313 | -102.96104 | 22740 ft | 453 kts | 113° |
| 2026-05-05 01:33 | 39.33993 | -102.92406 | 22737 ft | 451 kts | 119° |
| 2026-05-05 01:33 | 39.32582 | -102.88800 | 22735 ft | 451 kts | 119° |
| 2026-05-05 01:33 | 39.31161 | -102.85179 | 22729 ft | 451 kts | 119° |
| 2026-05-05 01:33 | 39.29740 | -102.81560 | 22728 ft | 451 kts | 119° |
| 2026-05-05 01:34 | 39.28320 | -102.77951 | 22723 ft | 452 kts | 119° |
| 2026-05-05 01:34 | 39.26898 | -102.74338 | 22723 ft | 452 kts | 119° |
| 2026-05-05 01:34 | 39.25472 | -102.70709 | 22728 ft | 452 kts | 119° |
| 2026-05-05 01:34 | 39.24052 | -102.67094 | 22734 ft | 452 kts | 119° |
| 2026-05-05 01:35 | 39.22631 | -102.63479 | 22738 ft | 452 kts | 119° |
| 2026-05-05 01:35 | 39.21204 | -102.59862 | 22744 ft | 452 kts | 120° |
| 2026-05-05 01:35 | 39.19772 | -102.56241 | 22751 ft | 453 kts | 120° |
| 2026-05-05 01:35 | 39.18356 | -102.52666 | 23067 ft | 455 kts | 120° |
| 2026-05-05 01:36 | 39.16888 | -102.48972 | 23443 ft | 459 kts | 120° |
| 2026-05-05 01:36 | 39.15446 | -102.45346 | 23739 ft | 462 kts | 120° |
| 2026-05-05 01:36 | 39.13977 | -102.41652 | 24036 ft | 465 kts | 120° |
| 2026-05-05 01:36 | 39.12499 | -102.37930 | 24322 ft | 468 kts | 120° |
| 2026-05-05 01:37 | 39.11008 | -102.34181 | 24594 ft | 472 kts | 120° |
| 2026-05-05 01:37 | 39.09505 | -102.30429 | 24876 ft | 475 kts | 120° |
| 2026-05-05 01:37 | 39.07980 | -102.26641 | 25148 ft | 478 kts | 120° |
| 2026-05-05 01:37 | 39.06444 | -102.22835 | 25405 ft | 481 kts | 120° |
| 2026-05-05 01:38 | 39.04896 | -102.19006 | 25650 ft | 484 kts | 120° |
| 2026-05-05 01:38 | 39.03336 | -102.15133 | 25896 ft | 488 kts | 120° |
| 2026-05-05 01:38 | 39.02280 | -102.12509 | 26066 ft | 490 kts | 120° |
| 2026-05-05 01:38 | 39.00711 | -102.08628 | 26312 ft | 493 kts | 120° |
| 2026-05-05 01:39 | 38.99137 | -102.04752 | 26563 ft | 496 kts | 120° |
| 2026-05-05 01:39 | 38.97541 | -102.00810 | 26812 ft | 499 kts | 120° |
| 2026-05-05 01:39 | 38.95943 | -101.96849 | 27055 ft | 502 kts | 120° |
| 2026-05-05 01:39 | 38.94335 | -101.92859 | 27306 ft | 505 kts | 120° |
| 2026-05-05 01:40 | 38.92707 | -101.88846 | 27553 ft | 508 kts | 120° |
| 2026-05-05 01:40 | 38.91060 | -101.84816 | 27774 ft | 511 kts | 120° |
| 2026-05-05 01:40 | 38.89398 | -101.80759 | 27996 ft | 514 kts | 120° |
| 2026-05-05 01:40 | 38.87734 | -101.76693 | 28206 ft | 517 kts | 120° |
| 2026-05-05 01:41 | 38.86058 | -101.72589 | 28419 ft | 521 kts | 119° |
| 2026-05-05 01:41 | 38.84598 | -101.68305 | 28612 ft | 526 kts | 110° |
| 2026-05-05 01:41 | 38.83479 | -101.63817 | 28819 ft | 529 kts | 108° |
| 2026-05-05 01:41 | 38.82373 | -101.59308 | 29042 ft | 532 kts | 108° |
| 2026-05-05 01:42 | 38.81253 | -101.54780 | 29252 ft | 535 kts | 108° |
| 2026-05-05 01:42 | 38.80115 | -101.50207 | 29467 ft | 538 kts | 108° |
| 2026-05-05 01:42 | 38.78968 | -101.45643 | 29667 ft | 541 kts | 108° |
| 2026-05-05 01:42 | 38.77809 | -101.41039 | 29864 ft | 543 kts | 108° |
| 2026-05-05 01:43 | 38.76645 | -101.36421 | 30087 ft | 545 kts | 109° |
| 2026-05-05 01:43 | 38.75481 | -101.31787 | 30276 ft | 548 kts | 109° |
| 2026-05-05 01:43 | 38.74319 | -101.27139 | 30462 ft | 550 kts | 109° |
| 2026-05-05 01:43 | 38.73148 | -101.22462 | 30659 ft | 552 kts | 109° |
| 2026-05-05 01:44 | 38.71967 | -101.17763 | 30869 ft | 554 kts | 109° |
| 2026-05-05 01:44 | 38.70783 | -101.13074 | 31089 ft | 556 kts | 109° |
| 2026-05-05 01:44 | 38.69599 | -101.08410 | 31310 ft | 558 kts | 110° |
| 2026-05-05 01:44 | 38.68382 | -101.03636 | 31527 ft | 559 kts | 110° |
| 2026-05-05 01:45 | 38.67191 | -100.98947 | 31725 ft | 561 kts | 110° |
| 2026-05-05 01:45 | 38.65981 | -100.94195 | 31929 ft | 563 kts | 110° |
| 2026-05-05 01:45 | 38.64766 | -100.89434 | 32130 ft | 565 kts | 110° |
| 2026-05-05 01:45 | 38.63543 | -100.84652 | 32318 ft | 567 kts | 110° |
| 2026-05-05 01:46 | 38.62313 | -100.79861 | 32489 ft | 569 kts | 110° |
| 2026-05-05 01:46 | 38.61076 | -100.75041 | 32671 ft | 571 kts | 110° |
| 2026-05-05 01:46 | 38.59838 | -100.70214 | 32834 ft | 573 kts | 110° |
| 2026-05-05 01:46 | 38.58597 | -100.65366 | 33001 ft | 575 kts | 111° |
| 2026-05-05 01:47 | 38.57347 | -100.60499 | 33183 ft | 576 kts | 111° |
| 2026-05-05 01:47 | 38.56093 | -100.55637 | 33357 ft | 578 kts | 111° |
| 2026-05-05 01:47 | 38.54819 | -100.50744 | 33523 ft | 580 kts | 111° |
| 2026-05-05 01:47 | 38.53544 | -100.45870 | 33697 ft | 581 kts | 111° |
| 2026-05-05 01:48 | 38.52258 | -100.40955 | 33871 ft | 582 kts | 111° |
| 2026-05-05 01:48 | 38.50979 | -100.36065 | 34069 ft | 583 kts | 111° |
| 2026-05-05 01:48 | 38.49697 | -100.31142 | 34272 ft | 583 kts | 111° |
| 2026-05-05 01:48 | 38.48421 | -100.26230 | 34480 ft | 583 kts | 111° |
| 2026-05-05 01:49 | 38.47143 | -100.21332 | 34635 ft | 583 kts | 111° |
| 2026-05-05 01:49 | 38.45859 | -100.16424 | 34681 ft | 583 kts | 111° |
| 2026-05-05 01:49 | 38.43281 | -100.06624 | 34662 ft | 582 kts | 111° |
| 2026-05-05 01:50 | 38.40704 | -99.96912 | 34664 ft | 582 kts | 111° |
| 2026-05-05 01:50 | 38.38108 | -99.87156 | 34665 ft | 582 kts | 111° |
| 2026-05-05 01:51 | 38.35515 | -99.77389 | 34655 ft | 582 kts | 111° |
| 2026-05-05 01:51 | 38.32908 | -99.67614 | 34672 ft | 582 kts | 111° |
| 2026-05-05 01:52 | 38.30295 | -99.57858 | 34672 ft | 583 kts | 111° |
| 2026-05-05 01:52 | 38.27667 | -99.48088 | 34672 ft | 583 kts | 111° |
| 2026-05-05 01:53 | 38.25024 | -99.38341 | 34679 ft | 583 kts | 111° |
| 2026-05-05 01:53 | 38.22363 | -99.28578 | 34690 ft | 584 kts | 111° |
| 2026-05-05 01:54 | 38.19700 | -99.18837 | 34693 ft | 584 kts | 111° |
| 2026-05-05 01:54 | 38.17036 | -99.09078 | 34695 ft | 584 kts | 111° |
| 2026-05-05 01:55 | 38.14358 | -98.99323 | 34695 ft | 584 kts | 111° |
| 2026-05-05 01:55 | 38.11681 | -98.89606 | 34684 ft | 584 kts | 111° |
| 2026-05-05 01:56 | 38.09022 | -98.79939 | 34665 ft | 584 kts | 111° |
| 2026-05-05 01:56 | 38.06317 | -98.70201 | 34658 ft | 584 kts | 111° |
| 2026-05-05 01:57 | 38.03608 | -98.60510 | 34641 ft | 583 kts | 111° |
| 2026-05-05 01:57 | 38.00886 | -98.50810 | 34643 ft | 583 kts | 111° |
| 2026-05-05 01:58 | 37.98157 | -98.41129 | 34643 ft | 583 kts | 111° |
| 2026-05-05 01:58 | 37.95436 | -98.31457 | 34639 ft | 583 kts | 111° |
| 2026-05-05 01:59 | 37.92709 | -98.21799 | 34651 ft | 582 kts | 111° |
| 2026-05-05 01:59 | 37.89958 | -98.12147 | 34660 ft | 582 kts | 111° |
| 2026-05-05 02:00 | 37.87224 | -98.02516 | 34666 ft | 582 kts | 111° |
| 2026-05-05 02:00 | 37.84494 | -97.92927 | 34672 ft | 582 kts | 111° |
| 2026-05-05 02:01 | 37.81740 | -97.83306 | 34664 ft | 582 kts | 111° |
| 2026-05-05 02:01 | 37.78956 | -97.73674 | 34664 ft | 582 kts | 111° |
| 2026-05-05 02:02 | 37.76162 | -97.64064 | 34694 ft | 583 kts | 111° |
| 2026-05-05 02:02 | 37.73325 | -97.54494 | 34712 ft | 582 kts | 113° |
| 2026-05-05 02:03 | 37.70233 | -97.45033 | 34714 ft | 581 kts | 115° |
| 2026-05-05 02:03 | 37.67011 | -97.35691 | 34717 ft | 581 kts | 116° |
| 2026-05-05 02:04 | 37.63811 | -97.26305 | 34693 ft | 581 kts | 115° |
| 2026-05-05 02:04 | 37.58267 | -97.09686 | 34693 ft | 581 kts | 115° |
| 2026-05-05 02:05 | 37.51954 | -96.90940 | 34699 ft | 581 kts | 115° |
| 2026-05-05 02:05 | 37.45582 | -96.72237 | 34700 ft | 580 kts | 115° |
| 2026-05-05 02:06 | 37.39264 | -96.53712 | 34701 ft | 580 kts | 115° |
| 2026-05-05 02:06 | 37.32818 | -96.35009 | 34702 ft | 580 kts | 115° |
| 2026-05-05 02:07 | 37.26393 | -96.16443 | 34720 ft | 579 kts | 115° |
| 2026-05-05 02:07 | 37.19974 | -95.98038 | 34747 ft | 579 kts | 115° |
| 2026-05-05 02:08 | 37.13497 | -95.79555 | 34755 ft | 579 kts | 115° |
| 2026-05-05 02:08 | 37.07004 | -95.61128 | 34746 ft | 579 kts | 115° |
| 2026-05-05 02:09 | 37.00457 | -95.42680 | 34746 ft | 579 kts | 115° |
| 2026-05-05 02:09 | 36.93909 | -95.24321 | 34765 ft | 579 kts | 115° |
| 2026-05-05 02:10 | 36.87297 | -95.05958 | 34776 ft | 579 kts | 115° |
| 2026-05-05 02:10 | 36.80692 | -94.87624 | 34779 ft | 579 kts | 115° |
| 2026-05-05 02:11 | 36.74029 | -94.69331 | 34795 ft | 579 kts | 115° |
| 2026-05-05 02:11 | 36.67360 | -94.51084 | 34798 ft | 579 kts | 115° |
| 2026-05-05 02:12 | 36.57290 | -94.23744 | 34828 ft | 578 kts | 115° |
| 2026-05-05 02:13 | 36.50570 | -94.05613 | 34848 ft | 578 kts | 115° |
| 2026-05-05 02:13 | 36.43796 | -93.87481 | 34840 ft | 578 kts | 115° |
| 2026-05-05 02:14 | 36.37008 | -93.69383 | 34814 ft | 578 kts | 115° |
| 2026-05-05 02:14 | 36.30184 | -93.51320 | 34825 ft | 578 kts | 115° |
| 2026-05-05 02:15 | 36.23405 | -93.33427 | 34856 ft | 578 kts | 115° |
| 2026-05-05 02:15 | 36.16545 | -93.15476 | 34858 ft | 577 kts | 115° |
| 2026-05-05 02:16 | 36.09651 | -92.97526 | 34837 ft | 577 kts | 115° |
| 2026-05-05 02:16 | 36.02733 | -92.79683 | 34837 ft | 576 kts | 115° |
| 2026-05-05 02:17 | 35.95834 | -92.61818 | 34839 ft | 576 kts | 115° |
| 2026-05-05 02:17 | 35.88855 | -92.44004 | 34861 ft | 576 kts | 115° |
| 2026-05-05 02:18 | 35.81881 | -92.26250 | 34869 ft | 575 kts | 115° |
| 2026-05-05 02:18 | 35.74875 | -92.08512 | 34870 ft | 576 kts | 115° |
| 2026-05-05 02:19 | 35.67846 | -91.90791 | 34881 ft | 575 kts | 115° |
| 2026-05-05 02:19 | 35.60804 | -91.73140 | 34887 ft | 575 kts | 115° |
| 2026-05-05 02:20 | 35.53751 | -91.55516 | 34896 ft | 575 kts | 115° |
| 2026-05-05 02:20 | 35.46639 | -91.37933 | 34908 ft | 575 kts | 115° |
| 2026-05-05 02:21 | 35.39560 | -91.20472 | 34918 ft | 575 kts | 115° |
| 2026-05-05 02:21 | 35.32363 | -91.02860 | 34908 ft | 575 kts | 115° |
| 2026-05-05 02:22 | 35.25236 | -90.85452 | 34900 ft | 575 kts | 115° |
| 2026-05-05 02:22 | 35.17992 | -90.67847 | 34904 ft | 575 kts | 115° |
| 2026-05-05 02:23 | 35.10804 | -90.50548 | 34912 ft | 575 kts | 115° |
| 2026-05-05 02:23 | 35.03563 | -90.33128 | 34910 ft | 575 kts | 115° |
| 2026-05-05 02:24 | 34.96277 | -90.15766 | 34932 ft | 575 kts | 116° |
| 2026-05-05 02:24 | 34.92052 | -90.07500 | 34925 ft | 574 kts | 131° |
| 2026-05-05 02:24 | 34.87025 | -89.99997 | 34928 ft | 574 kts | 130° |
| 2026-05-05 02:25 | 34.76981 | -89.84886 | 34930 ft | 574 kts | 130° |
| 2026-05-05 02:25 | 34.66915 | -89.69852 | 34936 ft | 573 kts | 130° |
| 2026-05-05 02:26 | 34.56830 | -89.54826 | 34976 ft | 573 kts | 130° |
| 2026-05-05 02:26 | 34.46758 | -89.39884 | 34983 ft | 573 kts | 130° |
| 2026-05-05 02:27 | 34.36635 | -89.24958 | 34971 ft | 572 kts | 130° |
| 2026-05-05 02:27 | 34.26527 | -89.10103 | 34965 ft | 572 kts | 130° |
| 2026-05-05 02:28 | 34.16451 | -88.95362 | 34968 ft | 572 kts | 130° |
| 2026-05-05 02:28 | 34.06249 | -88.80472 | 34970 ft | 572 kts | 130° |
| 2026-05-05 02:29 | 33.96112 | -88.65757 | 34968 ft | 571 kts | 130° |
| 2026-05-05 02:29 | 33.86003 | -88.51146 | 34957 ft | 571 kts | 130° |
| 2026-05-05 02:30 | 33.75809 | -88.36483 | 34955 ft | 571 kts | 131° |
| 2026-05-05 02:30 | 33.65623 | -88.21871 | 34956 ft | 571 kts | 131° |
| 2026-05-05 02:31 | 33.55408 | -88.07282 | 34956 ft | 571 kts | 131° |
| 2026-05-05 02:31 | 33.46902 | -87.95175 | 34957 ft | 571 kts | 131° |
| 2026-05-05 02:32 | 33.37719 | -87.82167 | 34968 ft | 570 kts | 131° |
| 2026-05-05 02:32 | 33.31732 | -87.73696 | 34960 ft | 570 kts | 130° |
| 2026-05-05 02:33 | 33.27673 | -87.67473 | 34974 ft | 570 kts | 126° |
| 2026-05-05 02:33 | 33.23079 | -87.59775 | 34974 ft | 570 kts | 124° |
| 2026-05-05 02:34 | 33.18478 | -87.52052 | 34977 ft | 570 kts | 126° |
| 2026-05-05 02:34 | 33.13764 | -87.44458 | 34983 ft | 570 kts | 127° |
| 2026-05-05 02:35 | 33.08988 | -87.36902 | 34985 ft | 570 kts | 127° |
| 2026-05-05 02:35 | 33.04232 | -87.29331 | 35001 ft | 570 kts | 126° |
| 2026-05-05 02:36 | 32.99511 | -87.21748 | 35012 ft | 570 kts | 126° |
| 2026-05-05 02:36 | 32.94788 | -87.14182 | 35012 ft | 569 kts | 126° |
| 2026-05-05 02:37 | 32.90037 | -87.06636 | 35005 ft | 569 kts | 126° |
| 2026-05-05 02:37 | 32.85287 | -86.99111 | 34996 ft | 569 kts | 126° |
| 2026-05-05 02:38 | 32.80542 | -86.91589 | 34993 ft | 569 kts | 126° |
| 2026-05-05 02:38 | 32.75823 | -86.84113 | 34984 ft | 568 kts | 126° |
| 2026-05-05 02:39 | 32.71073 | -86.76611 | 34984 ft | 568 kts | 126° |
| 2026-05-05 02:39 | 32.66319 | -86.69116 | 34993 ft | 568 kts | 126° |
| 2026-05-05 02:40 | 32.61567 | -86.61646 | 35002 ft | 568 kts | 127° |
| 2026-05-05 02:40 | 32.56797 | -86.54176 | 35014 ft | 567 kts | 127° |
| 2026-05-05 02:41 | 32.50268 | -86.43941 | 35015 ft | 567 kts | 126° |
| 2026-05-05 02:41 | 32.40748 | -86.29053 | 35014 ft | 566 kts | 127° |
| 2026-05-05 02:42 | 32.31222 | -86.14262 | 35024 ft | 566 kts | 127° |
| 2026-05-05 02:42 | 32.21665 | -85.99471 | 35047 ft | 565 kts | 127° |
| 2026-05-05 02:43 | 32.12132 | -85.84761 | 35054 ft | 564 kts | 127° |
| 2026-05-05 02:43 | 32.02577 | -85.70075 | 35060 ft | 564 kts | 127° |
| 2026-05-05 02:44 | 31.93078 | -85.55537 | 35067 ft | 563 kts | 127° |
| 2026-05-05 02:44 | 31.83518 | -85.40960 | 35072 ft | 562 kts | 127° |
| 2026-05-05 02:45 | 31.73950 | -85.26421 | 35079 ft | 561 kts | 127° |
| 2026-05-05 02:45 | 31.64381 | -85.11952 | 35074 ft | 560 kts | 127° |
| 2026-05-05 02:46 | 31.55835 | -84.96857 | 35091 ft | 551 kts | 107° |
| 2026-05-05 02:46 | 31.50689 | -84.79995 | 35114 ft | 550 kts | 105° |
| 2026-05-05 02:47 | 31.45468 | -84.63158 | 35099 ft | 549 kts | 105° |
| 2026-05-05 02:47 | 31.40301 | -84.46380 | 35100 ft | 548 kts | 106° |
| 2026-05-05 02:48 | 31.35101 | -84.29653 | 35111 ft | 546 kts | 106° |
| 2026-05-05 02:48 | 31.29882 | -84.12998 | 35099 ft | 544 kts | 107° |
| 2026-05-05 02:49 | 31.24713 | -83.96510 | 35099 ft | 542 kts | 107° |
| 2026-05-05 02:49 | 31.19494 | -83.80027 | 35107 ft | 541 kts | 107° |
| 2026-05-05 02:50 | 31.14278 | -83.63591 | 35103 ft | 539 kts | 108° |
| 2026-05-05 02:50 | 31.09056 | -83.47209 | 35096 ft | 537 kts | 108° |
| 2026-05-05 02:51 | 31.03818 | -83.30913 | 35081 ft | 535 kts | 108° |
| 2026-05-05 02:51 | 30.98604 | -83.14703 | 35085 ft | 533 kts | 109° |
| 2026-05-05 02:52 | 30.93382 | -82.98560 | 35087 ft | 533 kts | 109° |
| 2026-05-05 02:52 | 30.86321 | -82.83587 | 35099 ft | 528 kts | 137° |
| 2026-05-05 02:53 | 30.75005 | -82.72904 | 35092 ft | 523 kts | 146° |
| 2026-05-05 02:53 | 30.63512 | -82.62520 | 35111 ft | 523 kts | 146° |
| 2026-05-05 02:54 | 30.52011 | -82.52201 | 35112 ft | 523 kts | 146° |
| 2026-05-05 02:54 | 30.40513 | -82.41906 | 35107 ft | 522 kts | 146° |
| 2026-05-05 02:55 | 30.29031 | -82.31652 | 34658 ft | 513 kts | 147° |
| 2026-05-05 02:55 | 30.23426 | -82.26673 | 34187 ft | 506 kts | 149° |
| 2026-05-05 02:55 | 30.17344 | -82.23254 | 33666 ft | 481 kts | 173° |
| 2026-05-05 02:55 | 30.10880 | -82.21888 | 33144 ft | 468 kts | 179° |
| 2026-05-05 02:56 | 30.04427 | -82.20616 | 32618 ft | 463 kts | 179° |
| 2026-05-05 02:56 | 29.98196 | -82.19358 | 32114 ft | 457 kts | 179° |
| 2026-05-05 02:56 | 29.91975 | -82.18116 | 31605 ft | 451 kts | 179° |
| 2026-05-05 02:56 | 29.85837 | -82.16899 | 31128 ft | 445 kts | 179° |
| 2026-05-05 02:57 | 29.79780 | -82.15693 | 30648 ft | 439 kts | 179° |
| 2026-05-05 02:57 | 29.73794 | -82.14494 | 29752 ft | 434 kts | 179° |
| 2026-05-05 02:57 | 29.67932 | -82.13325 | 28912 ft | 425 kts | 179° |
| 2026-05-05 02:57 | 29.62155 | -82.12178 | 28103 ft | 418 kts | 179° |
| 2026-05-05 02:58 | 29.56465 | -82.11055 | 27305 ft | 412 kts | 178° |
| 2026-05-05 02:58 | 29.50848 | -82.09947 | 26510 ft | 408 kts | 178° |
| 2026-05-05 02:58 | 29.45269 | -82.08840 | 25620 ft | 406 kts | 178° |
| 2026-05-05 02:58 | 29.39690 | -82.07737 | 24619 ft | 409 kts | 177° |
| 2026-05-05 02:59 | 29.34066 | -82.06626 | 23629 ft | 411 kts | 176° |
| 2026-05-05 02:59 | 29.28624 | -82.04703 | 22608 ft | 421 kts | 155° |
| 2026-05-05 02:59 | 29.23650 | -82.01495 | 22211 ft | 395 kts | 156° |
| 2026-05-05 02:59 | 29.18947 | -81.98525 | 20677 ft | 378 kts | 156° |
| 2026-05-05 03:00 | 29.14783 | -81.95915 | 19686 ft | 354 kts | 156° |
| 2026-05-05 03:00 | 29.12603 | -81.94555 | 19371 ft | 360 kts | 156° |
| 2026-05-05 03:00 | 29.10403 | -81.93189 | 18953 ft | 362 kts | 156° |
| 2026-05-05 03:00 | 29.08214 | -81.91827 | 18515 ft | 362 kts | 154° |
| 2026-05-05 03:01 | 29.06138 | -81.90184 | 18025 ft | 356 kts | 142° |
| 2026-05-05 03:01 | 29.04335 | -81.88258 | 17490 ft | 354 kts | 140° |
| 2026-05-05 03:01 | 29.02573 | -81.86354 | 17068 ft | 351 kts | 139° |
| 2026-05-05 03:01 | 29.00801 | -81.84446 | 16642 ft | 348 kts | 139° |
| 2026-05-05 03:02 | 28.99049 | -81.82563 | 16230 ft | 346 kts | 139° |
| 2026-05-05 03:02 | 28.97426 | -81.80539 | 15821 ft | 347 kts | 129° |
| 2026-05-05 03:02 | 28.95978 | -81.78358 | 15424 ft | 340 kts | 129° |
| 2026-05-05 03:02 | 28.94547 | -81.76226 | 15011 ft | 337 kts | 129° |
| 2026-05-05 03:03 | 28.93119 | -81.74114 | 14614 ft | 334 kts | 129° |
| 2026-05-05 03:03 | 28.91702 | -81.72026 | 14221 ft | 333 kts | 129° |
| 2026-05-05 03:03 | 28.90291 | -81.69947 | 13892 ft | 329 kts | 129° |
| 2026-05-05 03:03 | 28.88897 | -81.67886 | 13480 ft | 327 kts | 129° |
| 2026-05-05 03:04 | 28.87515 | -81.65837 | 13018 ft | 324 kts | 129° |
| 2026-05-05 03:04 | 28.86148 | -81.63811 | 12633 ft | 320 kts | 129° |
| 2026-05-05 03:04 | 28.84797 | -81.61812 | 12245 ft | 318 kts | 129° |
| 2026-05-05 03:04 | 28.83456 | -81.59832 | 11896 ft | 313 kts | 129° |
| 2026-05-05 03:05 | 28.82137 | -81.57882 | 11645 ft | 308 kts | 129° |
| 2026-05-05 03:05 | 28.80830 | -81.55956 | 11400 ft | 307 kts | 130° |
| 2026-05-05 03:05 | 28.79332 | -81.54243 | 11157 ft | 304 kts | 144° |
| 2026-05-05 03:05 | 28.77548 | -81.52977 | 10916 ft | 301 kts | 154° |
| 2026-05-05 03:06 | 28.75715 | -81.51889 | 10682 ft | 301 kts | 154° |
| 2026-05-05 03:06 | 28.73845 | -81.50771 | 10439 ft | 299 kts | 154° |
| 2026-05-05 03:06 | 28.72027 | -81.49678 | 10235 ft | 299 kts | 154° |
| 2026-05-05 03:06 | 28.70166 | -81.48556 | 9934 ft | 298 kts | 154° |
| 2026-05-05 03:07 | 28.68367 | -81.47473 | 9585 ft | 296 kts | 154° |
| 2026-05-05 03:07 | 28.66549 | -81.46381 | 9249 ft | 294 kts | 154° |
| 2026-05-05 03:07 | 28.64748 | -81.45301 | 8923 ft | 292 kts | 154° |
| 2026-05-05 03:07 | 28.62954 | -81.44230 | 8580 ft | 290 kts | 154° |
| 2026-05-05 03:08 | 28.61170 | -81.43212 | 8373 ft | 282 kts | 160° |
| 2026-05-05 03:08 | 28.59326 | -81.42659 | 8257 ft | 266 kts | 175° |
| 2026-05-05 03:08 | 28.57537 | -81.42470 | 8008 ft | 255 kts | 177° |
| 2026-05-05 03:08 | 28.55801 | -81.42432 | 7779 ft | 244 kts | 182° |
| 2026-05-05 03:09 | 28.54088 | -81.42439 | 7669 ft | 247 kts | 182° |
| 2026-05-05 03:09 | 28.52374 | -81.42437 | 7481 ft | 246 kts | 182° |
| 2026-05-05 03:09 | 28.50669 | -81.42434 | 7257 ft | 244 kts | 182° |
| 2026-05-05 03:09 | 28.48978 | -81.42430 | 7025 ft | 242 kts | 182° |
| 2026-05-05 03:10 | 28.47298 | -81.42426 | 6786 ft | 241 kts | 182° |
| 2026-05-05 03:10 | 28.45625 | -81.42423 | 6549 ft | 239 kts | 182° |
| 2026-05-05 03:10 | 28.43962 | -81.42422 | 6304 ft | 239 kts | 182° |
| 2026-05-05 03:10 | 28.42298 | -81.42422 | 6056 ft | 239 kts | 181° |
| 2026-05-05 03:11 | 28.40640 | -81.42422 | 5846 ft | 239 kts | 181° |
| 2026-05-05 03:11 | 28.38983 | -81.42421 | 5599 ft | 238 kts | 181° |
| 2026-05-05 03:11 | 28.37329 | -81.42420 | 5365 ft | 238 kts | 181° |
| 2026-05-05 03:11 | 28.35692 | -81.42421 | 5134 ft | 239 kts | 181° |
| 2026-05-05 03:12 | 28.34030 | -81.42421 | 4905 ft | 239 kts | 180° |
| 2026-05-05 03:12 | 28.32370 | -81.42422 | 4671 ft | 238 kts | 180° |
| 2026-05-05 03:12 | 28.30729 | -81.42425 | 4488 ft | 231 kts | 180° |
| 2026-05-05 03:12 | 28.29149 | -81.42426 | 4243 ft | 224 kts | 178° |
| 2026-05-05 03:13 | 28.27649 | -81.42143 | 4039 ft | 216 kts | 159° |
| 2026-05-05 03:13 | 28.26364 | -81.41317 | 3838 ft | 213 kts | 140° |
| 2026-05-05 03:13 | 28.25400 | -81.40056 | 3649 ft | 212 kts | 121° |
| 2026-05-05 03:13 | 28.24857 | -81.38503 | 3454 ft | 212 kts | 102° |
| 2026-05-05 03:14 | 28.24799 | -81.36845 | 3253 ft | 212 kts | 83° |
| 2026-05-05 03:14 | 28.25225 | -81.35252 | 3054 ft | 212 kts | 65° |
| 2026-05-05 03:14 | 28.26094 | -81.33909 | 2854 ft | 214 kts | 46° |
| 2026-05-05 03:14 | 28.27304 | -81.32976 | 2679 ft | 205 kts | 27° |
| 2026-05-05 03:15 | 28.28618 | -81.32563 | 2480 ft | 188 kts | 10° |
| 2026-05-05 03:15 | 28.29874 | -81.32547 | 2285 ft | 176 kts | 3° |
| 2026-05-05 03:15 | 28.31071 | -81.32563 | 2080 ft | 169 kts | 5° |
| 2026-05-05 03:15 | 28.32236 | -81.32572 | 1885 ft | 167 kts | 5° |
| 2026-05-05 03:16 | 28.33389 | -81.32582 | 1707 ft | 164 kts | 5° |
| 2026-05-05 03:16 | 28.34537 | -81.32591 | 1493 ft | 164 kts | 5° |
| 2026-05-05 03:16 | 28.35661 | -81.32601 | 1276 ft | 163 kts | 5° |
| 2026-05-05 03:16 | 28.36801 | -81.32613 | 1048 ft | 162 kts | 5° |
| 2026-05-05 03:17 | 28.37868 | -81.32626 | 841 ft | 152 kts | 4° |
| 2026-05-05 03:17 | 28.38908 | -81.32638 | 646 ft | 148 kts | 2° |
| 2026-05-05 03:17 | 28.39883 | -81.32659 | 474 ft | 147 kts | 359° |
| 2026-05-05 03:17 | 28.40911 | -81.32685 | 262 ft | 146 kts | 8° |
| 2026-05-05 03:18 | 28.41919 | -81.32655 | 114 ft | 146 kts | 0° |
| 2026-05-05 03:18 | 28.42724 | -81.32661 | 104 ft | 73 kts | 359° |
| 2026-05-05 03:18 | 28.42972 | -81.32652 | 108 ft | 18 kts | 21° |
| 2026-05-05 03:18 | 28.43055 | -81.32547 | 106 ft | 19 kts | 78° |
| 2026-05-05 03:19 | 28.43057 | -81.32496 | 106 ft | 0 kts | 88° |
| 2026-05-05 03:20 | 28.43058 | -81.32484 | 106 ft | 4 kts | 88° |
| 2026-05-05 03:20 | 28.43059 | -81.32410 | 105 ft | 13 kts | 90° |
| 2026-05-05 03:20 | 28.43059 | -81.32294 | 103 ft | 16 kts | 90° |
| 2026-05-05 03:21 | 28.43059 | -81.32155 | 100 ft | 19 kts | 90° |
| 2026-05-05 03:21 | 28.43110 | -81.32020 | 101 ft | 19 kts | 55° |
| 2026-05-05 03:21 | 28.43185 | -81.31894 | 101 ft | 20 kts | 56° |
| 2026-05-05 03:21 | 28.43262 | -81.31761 | 102 ft | 21 kts | 58° |
| 2026-05-05 03:22 | 28.43272 | -81.31605 | 102 ft | 17 kts | 99° |
| 2026-05-05 03:22 | 28.43283 | -81.31514 | 101 ft | 12 kts | 65° |
| 2026-05-05 03:22 | 28.43325 | -81.31461 | 102 ft | 4 kts | 357° |
| 2026-05-05 03:22 | 28.43330 | -81.31462 | 102 ft | 0 kts | 351° |
| 2026-05-05 03:23 | 28.43355 | -81.31475 | 102 ft | 6 kts | 332° |
| 2026-05-05 03:23 | 28.43369 | -81.31485 | 102 ft | 0 kts | 328° |